Time;durP1;ratioP1;P1;durP2;ratioP2;P2;SDS_P1;SDS_P2;PMS_P1;PMS_P2;Temp;Humidity;BMP_temperature;BMP_pressure;BME280_temperature;BME280_humidity;BME280_pressure;Samples;Min_cycle;Max_cycle;Signal;HPM_P1;HPM_P2
2023/07/27 00:06:50;;;;;;;;;;;;;;;;;;5091610;28;20351;-67
2023/07/27 00:09:15;;;;;;;;;;;;;;;;;;5090975;28;19995;-68
2023/07/27 00:12:04;;;;;;;;;;;;;;;;;;5112255;27;20380;-67
2023/07/27 00:14:30;;;;;;;;;;;;;;;;;;5111751;28;19999;-67
2023/07/27 00:19:42;;;;;;;;;;;;;;;;;;5092176;27;19922;-69
2023/07/27 00:25:26;;;;;;;;;;;;;;;;;;5091039;27;19922;-67
2023/07/27 00:27:52;;;;;;;;;;;;;;;;;;5091455;28;20003;-67
2023/07/27 00:30:17;;;;;;;;;;;;;;;;;;5091290;28;19908;-67
2023/07/27 00:34:41;;;;;;;;;;;;;;;;;;5091699;28;19913;-67
2023/07/27 00:40:41;;;;;;;;;;;;;;;;;;5091981;27;19923;-68
2023/07/27 00:43:07;;;;;;;;;;;;;;;;;;5091389;28;19999;-67
2023/07/27 00:47:54;;;;;;;;;;;;;;;;;;5091969;27;19916;-67
2023/07/27 00:50:20;;;;;;;;;;;;;;;;;;5091665;28;20003;-67
2023/07/27 00:53:42;;;;;;;;;;;;;;;;;;5090921;27;19913;-67
2023/07/27 00:57:51;;;;;;;;;;;;;;;;;;5153185;27;19911;-67
2023/07/27 01:12:04;;;;;;;;;;;;;;;;;;5112000;27;19922;-67
2023/07/27 01:14:30;;;;;;;;;;;;;;;;;;5111402;28;20006;-67
2023/07/27 01:19:44;;;;;;;;;;;;;;;;;;5091765;28;20262;-67
2023/07/27 01:24:36;;;;;;;;;;;;;;;;;;5091688;27;19922;-67
2023/07/27 01:27:02;;;;;;;;;;;;;;;;;;5091153;28;19994;-67
2023/07/27 01:29:28;;;;;;;;;;;;;;;;;;5091561;28;19909;-68
2023/07/27 01:31:54;;;;;;;;;;;;;;;;;;5091353;28;19914;-67
2023/07/27 01:35:26;;;;;;;;;;;;;;;;;;5091197;27;19923;-67
2023/07/27 01:37:52;;;;;;;;;;;;;;;;;;5091434;28;19999;-67
2023/07/27 01:40:18;;;;;;;;;;;;;;;;;;5090039;28;20348;-68
2023/07/27 01:48:27;;;;;;;;;;;;;;;;;;5091458;27;19923;-67
2023/07/27 01:53:10;;;;;;;;;;;;;;;;;;5092334;28;19919;-67
2023/07/27 01:58:53;;;;;;;;;;;;;;;;;;5092282;27;19922;-67
2023/07/27 02:03:47;;;;;;;;;;;;;;;;;;5091116;27;19913;-68
2023/07/27 02:15:16;;;;;;;;;;;;;;;;;;5152964;27;19919;-67
2023/07/27 02:23:07;;;;;;;;;;;;;;;;;;5091728;27;19923;-67
2023/07/27 02:25:55;;;;;;;;;;;;;;;;;;5101725;27;2111334;-67
2023/07/27 02:32:14;;;;;;;;;;;;;;;;;;5091996;27;19917;-68
2023/07/27 02:34:40;;;;;;;;;;;;;;;;;;5090132;28;20008;-69
2023/07/27 02:37:06;;;;;;;;;;;;;;;;;;5091176;28;19912;-69
2023/07/27 02:39:32;;;;;;;;;;;;;;;;;;5091352;28;19922;-69
2023/07/27 02:42:57;;;;;;;;;;;;;;;;;;5091703;27;20317;-69
2023/07/27 02:46:10;;;;;;;;;;;;;;;;;;5091129;27;19922;-68
2023/07/27 02:48:53;;;;;;;;;;;;;;;;;;5091654;27;19997;-67
2023/07/27 02:51:19;;;;;;;;;;;;;;;;;;5090959;28;19920;-68
2023/07/27 02:53:45;;;;;;;;;;;;;;;;;;5091278;28;19909;-67
2023/07/27 02:56:11;;;;;;;;;;;;;;;;;;5091304;28;20392;-67
2023/07/27 03:00:55;;;;;;;;;;;;;;;;;;5091727;27;19919;-68
2023/07/27 03:03:21;;;;;;;;;;;;;;;;;;5091389;28;19913;-68
2023/07/27 03:08:38;;;;;;;;;;;;;;;;;;5112040;27;19916;-67
2023/07/27 03:11:04;;;;;;;;;;;;;;;;;;5111851;28;19998;-68
2023/07/27 03:18:02;;;;;;;;;;;;;;;;;;5091639;27;19916;-67
2023/07/27 03:20:28;;;;;;;;;;;;;;;;;;5091058;28;19935;-67
2023/07/27 03:22:54;;;;;;;;;;;;;;;;;;5091318;28;19908;-67
2023/07/27 03:27:54;;;;;;;;;;;;;;;;;;5091177;27;19919;-67
2023/07/27 03:30:20;;;;;;;;;;;;;;;;;;5091380;28;20002;-67
2023/07/27 03:32:46;;;;;;;;;;;;;;;;;;5091334;28;19913;-67
2023/07/27 03:35:12;;;;;;;;;;;;;;;;;;5090975;28;19908;-67
2023/07/27 03:38:22;;;;;;;;;;;;;;;;;;5092248;28;19922;-67
2023/07/27 03:40:48;;;;;;;;;;;;;;;;;;5091037;28;19995;-67
2023/07/27 03:44:28;;;;;;;;;;;;;;;;;;5091962;27;19922;-67
2023/07/27 03:46:54;;;;;;;;;;;;;;;;;;5091358;28;19999;-67
2023/07/27 03:49:20;;;;;;;;;;;;;;;;;;5090861;28;19908;-67
2023/07/27 03:52:46;;;;;;;;;;;;;;;;;;5091480;28;19916;-67
2023/07/27 03:55:12;;;;;;;;;;;;;;;;;;5089657;28;20014;-67
2023/07/27 03:59:17;;;;;;;;;;;;;;;;;;5092278;27;19916;-67
2023/07/27 04:04:57;;;;;;;;;;;;;;;;;;5091477;27;19922;-67
2023/07/27 04:08:14;;;;;;;;;;;;;;;;;;5112260;27;19999;-68
2023/07/27 04:10:40;;;;;;;;;;;;;;;;;;5093085;28;20343;-68
2023/07/27 04:13:06;;;;;;;;;;;;;;;;;;5111647;28;19912;-67
2023/07/27 04:15:32;;;;;;;;;;;;;;;;;;5111239;28;20003;-68
2023/07/27 04:21:17;;;;;;;;;;;;;;;;;;5091857;27;20292;-67
2023/07/27 04:23:43;;;;;;;;;;;;;;;;;;5091022;28;20003;-67
2023/07/27 04:27:49;;;;;;;;;;;;;;;;;;5071613;28;19923;-67
2023/07/27 04:31:22;;;;;;;;;;;;;;;;;;5091209;27;19917;-67
2023/07/27 04:33:48;;;;;;;;;;;;;;;;;;5091404;28;20340;-67
2023/07/27 04:41:17;;;;;;;;;;;;;;;;;;5092215;27;19917;-67
2023/07/27 04:43:43;;;;;;;;;;;;;;;;;;5091123;28;19999;-68
2023/07/27 04:46:53;;;;;;;;;;;;;;;;;;5111833;27;19921;-68
2023/07/27 04:49:19;;;;;;;;;;;;;;;;;;5111986;28;19916;-68
2023/07/27 04:54:02;;;;;;;;;;;;;;;;;;5112575;27;19912;-68
2023/07/27 04:56:28;;;;;;;;;;;;;;;;;;5110831;28;20459;-68
2023/07/27 04:58:54;;;;;;;;;;;;;;;;;;5110024;28;19914;-67
2023/07/27 05:01:20;;;;;;;;;;;;;;;;;;5111664;28;20003;-67
2023/07/27 05:08:09;;;;;;;;;;;;;;;;;;5091390;27;19912;-67
2023/07/27 05:11:02;;;;;;;;;;;;;;;;;;5091408;27;19919;-67
2023/07/27 05:14:03;;;;;;;;;;;;;;;;;;5090990;27;20326;-67
2023/07/27 05:18:17;;;;;;;;;;;;;;;;;;5112467;27;19927;-67
2023/07/27 05:23:05;;;;;;;;;;;;;;;;;;5152971;27;19911;-67
2023/07/27 05:26:06;;;;;;;;;;;;;;;;;;5091111;27;19913;-67
2023/07/27 05:31:01;;;;;;;;;;;;;;;;;;5091887;28;19916;-68
2023/07/27 05:33:27;;;;;;;;;;;;;;;;;;5089695;28;20353;-70
2023/07/27 05:43:07;;;;;;;;;;;;;;;;;;5090596;27;19943;-67
2023/07/27 05:45:33;;;;;;;;;;;;;;;;;;5090761;28;20457;-67
2023/07/27 05:47:59;;;;;;;;;;;;;;;;;;5090237;28;19961;-67
2023/07/27 05:55:08;;;;;;;;;;;;;;;;;;5090958;27;19916;-68
2023/07/27 05:59:46;;;;;;;;;;;;;;;;;;5092292;27;19916;-67
2023/07/27 06:03:55;;;;;;;;;;;;;;;;;;5091908;27;19916;-67
2023/07/27 06:06:21;;;;;;;;;;;;;;;;;;5091389;28;19913;-67
2023/07/27 06:08:47;;;;;;;;;;;;;;;;;;5091099;28;19909;-68
2023/07/27 06:13:43;;;;;;;;;;;;;;;;;;5091694;27;19916;-68
2023/07/27 06:16:09;;;;;;;;;;;;;;;;;;5090973;28;19947;-67
2023/07/27 06:18:35;;;;;;;;;;;;;;;;;;5091291;28;19916;-67
2023/07/27 06:21:01;;;;;;;;;;;;;;;;;;5091283;28;19909;-68
2023/07/27 06:23:27;;;;;;;;;;;;;;;;;;5090753;28;20003;-68
2023/07/27 06:28:40;;;;;;;;;;;;;;;;;;5091495;27;19912;-67
2023/07/27 06:31:06;;;;;;;;;;;;;;;;;;5090966;28;20011;-68
2023/07/27 06:37:58;;;;;;;;;;;;;;;;;;5111583;27;19916;-67
2023/07/27 06:40:24;;;;;;;;;;;;;;;;;;5111695;28;20396;-67
2023/07/27 06:43:21;;;;;;;;;;;;;;;;;;5111426;27;19916;-68
2023/07/27 06:47:55;;;;;;;;;;;;;;;;;;5092195;28;20357;-68
2023/07/27 06:50:21;;;;;;;;;;;;;;;;;;5090947;28;20015;-68
2023/07/27 06:52:47;;;;;;;;;;;;;;;;;;5091335;28;19952;-67
2023/07/27 06:58:27;;;;;;;;;;;;;;;;;;5091319;27;20368;-68
2023/07/27 07:07:16;;;;;;;;;;;;;;;;;;5091833;27;19917;-67
2023/07/27 07:09:43;;;;;;;;;;;;;;;;;;5090029;28;19912;-67
2023/07/27 07:12:08;;;;;;;;;;;;;;;;;;5091179;28;19908;-67
2023/07/27 07:17:38;;;;;;;;;;;;;;;;;;5092146;27;19919;-67
2023/07/27 07:20:14;;;;;;;;;;;;;;;;;;5091067;27;19916;-67
2023/07/27 07:22:40;;;;;;;;;;;;;;;;;;5091359;28;20015;-67
2023/07/27 07:25:06;;;;;;;;;;;;;;;;;;5091382;28;19995;-68
2023/07/27 07:27:32;;;;;;;;;;;;;;;;;;5090837;28;20345;-67
2023/07/27 07:35:38;;;;;;;;;;;;;;;;;;5092181;27;19939;-67
2023/07/27 07:38:21;;;;;;;;;;;;;;;;;;5091455;28;19923;-69
2023/07/27 07:43:13;;;;;;;;;;;;;;;;;;5091785;27;19917;-67
2023/07/27 07:45:59;;;;;;;;;;;;;;;;;;5091898;27;19922;-67
2023/07/27 07:49:19;;;;;;;;;;;;;;;;;;5091755;28;19917;-67
2023/07/27 07:51:45;;;;;;;;;;;;;;;;;;5091556;28;20026;-67
2023/07/27 07:54:11;;;;;;;;;;;;;;;;;;5090902;28;19909;-67
2023/07/27 07:56:37;;;;;;;;;;;;;;;;;;5090013;28;19909;-67
2023/07/27 07:59:03;;;;;;;;;;;;;;;;;;5091270;28;19908;-68
2023/07/27 08:03:52;;;;;;;;;;;;;;;;;;5091494;27;19923;-67
2023/07/27 08:06:39;;;;;;;;;;;;;;;;;;5091989;27;19917;-67
2023/07/27 08:09:06;;;;;;;;;;;;;;;;;;5091009;28;20002;-67
2023/07/27 08:11:32;;;;;;;;;;;;;;;;;;5091302;28;19908;-67
2023/07/27 08:14:02;;;;;;;;;;;;;;;;;;5091206;28;20335;-67
2023/07/27 08:16:28;;;;;;;;;;;;;;;;;;5089425;28;19915;-68
2023/07/27 08:18:54;;;;;;;;;;;;;;;;;;5091122;28;19950;-67
2023/07/27 08:22:33;;;;;;;;;;;;;;;;;;5111628;27;20401;-67
2023/07/27 08:24:59;;;;;;;;;;;;;;;;;;5111634;28;20010;-67
2023/07/27 08:27:25;;;;;;;;;;;;;;;;;;5111908;28;20414;-67
2023/07/27 08:30:12;;;;;;;;;;;;;;;;;;5091197;27;20270;-67
2023/07/27 08:34:20;;;;;;;;;;;;;;;;;;5132269;27;19985;-67
2023/07/27 08:38:17;;;;;;;;;;;;;;;;;;5091647;27;19917;-67
2023/07/27 08:40:43;;;;;;;;;;;;;;;;;;5090007;28;19918;-67
2023/07/27 08:43:09;;;;;;;;;;;;;;;;;;5091254;28;20331;-67
2023/07/27 08:47:40;;;;;;;;;;;;;;;;;;5091394;27;19916;-68
2023/07/27 08:50:06;;;;;;;;;;;;;;;;;;5091168;28;20435;-67
2023/07/27 08:52:32;;;;;;;;;;;;;;;;;;5091370;28;19916;-67
2023/07/27 08:55:40;;;;;;;;;;;;;;;;;;5091712;27;20291;-68
2023/07/27 09:01:26;;;;;;;;;;;;;;;;;;5091956;27;19918;-67
2023/07/27 09:03:52;;;;;;;;;;;;;;;;;;5090912;28;20376;-67
2023/07/27 09:08:36;;;;;;;;;;;;;;;;;;5091429;27;19916;-67
2023/07/27 09:11:02;;;;;;;;;;;;;;;;;;5090914;28;19919;-68
2023/07/27 09:13:28;;;;;;;;;;;;;;;;;;5089974;28;20018;-68
2023/07/27 09:15:54;;;;;;;;;;;;;;;;;;5091276;28;19908;-67
2023/07/27 09:18:20;;;;;;;;;;;;;;;;;;5090796;28;19908;-68
2023/07/27 09:24:57;;;;;;;;;;;;;;;;;;5173887;27;20022;-68
2023/07/27 09:27:23;;;;;;;;;;;;;;;;;;5173767;27;19911;-68
2023/07/27 09:30:35;;;;;;;;;;;;;;;;;;5153515;27;20427;-67
2023/07/27 09:33:01;;;;;;;;;;;;;;;;;;5152503;27;19918;-67
2023/07/27 09:35:27;;;;;;;;;;;;;;;;;;5152732;27;19907;-68
2023/07/27 09:37:53;;;;;;;;;;;;;;;;;;5152855;27;19919;-68
2023/07/27 09:41:36;;;;;;;;;;;;;;;;;;5091577;27;19923;-67
2023/07/27 09:44:02;;;;;;;;;;;;;;;;;;5091292;28;20007;-68
2023/07/27 09:48:39;;;;;;;;;;;;;;;;;;5092103;28;19912;-67
2023/07/27 09:51:06;;;;;;;;;;;;;;;;;;5089327;28;19947;-68
2023/07/27 09:53:32;;;;;;;;;;;;;;;;;;5088860;28;19909;-68
2023/07/27 09:55:58;;;;;;;;;;;;;;;;;;5089157;28;19909;-68
2023/07/27 09:58:56;;;;;;;;;;;;;;;;;;5069001;28;19923;-69
2023/07/27 10:01:22;;;;;;;;;;;;;;;;;;5068976;28;19913;-68
2023/07/27 10:03:48;;;;;;;;;;;;;;;;;;5067595;28;19915;-69
2023/07/27 10:06:13;;;;;;;;;;;;;;;;;;5069271;28;19908;-70
2023/07/27 10:09:12;;;;;;;;;;;;;;;;;;5091081;27;19916;-68
2023/07/27 10:11:38;;;;;;;;;;;;;;;;;;5091507;28;20344;-67
2023/07/27 10:14:04;;;;;;;;;;;;;;;;;;5091140;28;19909;-68
2023/07/27 10:16:30;;;;;;;;;;;;;;;;;;5091522;28;19916;-68
2023/07/27 10:19:18;;;;;;;;;;;;;;;;;;5092037;27;19938;-68
2023/07/27 10:21:43;;;;;;;;;;;;;;;;;;5091014;28;20428;-69
2023/07/27 10:24:09;;;;;;;;;;;;;;;;;;5091319;28;19962;-68
2023/07/27 10:26:35;;;;;;;;;;;;;;;;;;5091247;28;19909;-68
2023/07/27 10:30:23;;;;;;;;;;;;;;;;;;5091134;27;19918;-69
2023/07/27 10:32:49;;;;;;;;;;;;;;;;;;5091481;28;19995;-68
2023/07/27 10:37:09;;;;;;;;;;;;;;;;;;5091205;27;20299;-69
2023/07/27 10:39:35;;;;;;;;;;;;;;;;;;5091355;28;20403;-69
2023/07/27 10:42:01;;;;;;;;;;;;;;;;;;5091282;28;19909;-69
2023/07/27 10:44:27;;;;;;;;;;;;;;;;;;5090933;28;19916;-69
2023/07/27 10:46:53;;;;;;;;;;;;;;;;;;5091231;28;19909;-69
2023/07/27 10:49:19;;;;;;;;;;;;;;;;;;5090851;28;20284;-69
2023/07/27 10:51:46;;;;;;;;;;;;;;;;;;5091137;28;19909;-67
2023/07/27 10:54:12;;;;;;;;;;;;;;;;;;5091062;28;19954;-68
2023/07/27 10:57:04;;;;;;;;;;;;;;;;;;5091118;28;20403;-68
2023/07/27 10:59:30;;;;;;;;;;;;;;;;;;5091328;28;20003;-68
2023/07/27 11:01:56;;;;;;;;;;;;;;;;;;5091316;28;20337;-68
2023/07/27 11:04:52;;;;;;;;;;;;;;;;;;5091212;27;19923;-68
2023/07/27 11:07:18;;;;;;;;;;;;;;;;;;5090067;28;19999;-68
2023/07/27 11:09:47;;;;;;;;;;;;;;;;;;5091256;28;19954;-68
2023/07/27 11:12:13;;;;;;;;;;;;;;;;;;5090872;28;19915;-68
2023/07/27 11:14:39;;;;;;;;;;;;;;;;;;5091218;28;19913;-69
2023/07/27 11:17:05;;;;;;;;;;;;;;;;;;5091176;28;19909;-69
2023/07/27 11:19:31;;;;;;;;;;;;;;;;;;5090797;28;19909;-69
2023/07/27 11:21:57;;;;;;;;;;;;;;;;;;5091093;28;19942;-69
2023/07/27 11:25:29;;;;;;;;;;;;;;;;;;5071208;28;19916;-68
2023/07/27 11:27:55;;;;;;;;;;;;;;;;;;5069952;28;20008;-69
2023/07/27 11:30:21;;;;;;;;;;;;;;;;;;5071711;28;19908;-68
2023/07/27 11:32:47;;;;;;;;;;;;;;;;;;5070748;28;20400;-69
2023/07/27 11:35:13;;;;;;;;;;;;;;;;;;5071140;28;19908;-69
2023/07/27 11:37:39;;;;;;;;;;;;;;;;;;5071003;28;19913;-69
2023/07/27 11:40:05;;;;;;;;;;;;;;;;;;5069332;28;19920;-69
2023/07/27 11:42:31;;;;;;;;;;;;;;;;;;5070849;28;19959;-69
2023/07/27 11:44:57;;;;;;;;;;;;;;;;;;5070795;28;19916;-69
2023/07/27 11:47:23;;;;;;;;;;;;;;;;;;5069150;28;20331;-69
2023/07/27 11:49:49;;;;;;;;;;;;;;;;;;5070764;28;19999;-69
2023/07/27 11:52:15;;;;;;;;;;;;;;;;;;5070719;28;19909;-68
2023/07/27 11:54:41;;;;;;;;;;;;;;;;;;5070283;28;19954;-69
2023/07/27 11:57:08;;;;;;;;;;;;;;;;;;5070641;28;19944;-68
2023/07/27 11:59:33;;;;;;;;;;;;;;;;;;5070639;28;19935;-69
2023/07/27 12:02:00;;;;;;;;;;;;;;;;;;5069306;28;19913;-69
2023/07/27 12:04:26;;;;;;;;;;;;;;;;;;5070561;28;19923;-69
2023/07/27 12:06:52;;;;;;;;;;;;;;;;;;5070252;28;19996;-69
2023/07/27 12:09:18;;;;;;;;;;;;;;;;;;5070364;28;19908;-69
2023/07/27 12:11:44;;;;;;;;;;;;;;;;;;5070360;28;19909;-69
2023/07/27 12:14:10;;;;;;;;;;;;;;;;;;5069767;28;20373;-68
2023/07/27 12:16:37;;;;;;;;;;;;;;;;;;5070378;28;19908;-69
2023/07/27 12:19:03;;;;;;;;;;;;;;;;;;5070214;28;19955;-68
2023/07/27 12:21:28;;;;;;;;;;;;;;;;;;5068429;28;19921;-69
2023/07/27 12:23:54;;;;;;;;;;;;;;;;;;5077346;28;19928;-68
2023/07/27 12:26:20;;;;;;;;;;;;;;;;;;5090402;28;19970;-68
2023/07/27 12:28:46;;;;;;;;;;;;;;;;;;5089735;28;19908;-68
2023/07/27 12:31:12;;;;;;;;;;;;;;;;;;5090164;28;19909;-69
2023/07/27 12:33:38;;;;;;;;;;;;;;;;;;5090118;28;19909;-69
2023/07/27 12:36:04;;;;;;;;;;;;;;;;;;5080426;28;20000;-69
2023/07/27 12:38:30;;;;;;;;;;;;;;;;;;5076544;28;19909;-69
2023/07/27 12:40:56;;;;;;;;;;;;;;;;;;5058525;28;19908;-69
2023/07/27 12:43:22;;;;;;;;;;;;;;;;;;5076030;28;20014;-68
2023/07/27 12:45:49;;;;;;;;;;;;;;;;;;5076402;28;19947;-69
2023/07/27 12:48:14;;;;;;;;;;;;;;;;;;5076377;28;20361;-68
2023/07/27 12:50:41;;;;;;;;;;;;;;;;;;5076054;28;20003;-68
2023/07/27 12:53:06;;;;;;;;;;;;;;;;;;5076557;28;19915;-69
2023/07/27 12:55:32;;;;;;;;;;;;;;;;;;5076196;28;19909;-69
2023/07/27 12:57:58;;;;;;;;;;;;;;;;;;5075822;28;19908;-67
2023/07/27 13:00:24;;;;;;;;;;;;;;;;;;5058157;28;20379;-70
2023/07/27 13:02:50;;;;;;;;;;;;;;;;;;5076089;28;20360;-69
2023/07/27 13:05:16;;;;;;;;;;;;;;;;;;5075635;28;19928;-69
2023/07/27 13:07:42;;;;;;;;;;;;;;;;;;5058106;28;19999;-69
2023/07/27 13:10:09;;;;;;;;;;;;;;;;;;5075546;28;20005;-69
2023/07/27 13:12:34;;;;;;;;;;;;;;;;;;5075941;28;19909;-68
2023/07/27 13:15:02;;;;;;;;;;;;;;;;;;5075812;28;19908;-69
2023/07/27 13:17:28;;;;;;;;;;;;;;;;;;5075434;28;19908;-69
2023/07/27 13:19:54;;;;;;;;;;;;;;;;;;5075715;28;19978;-69
2023/07/27 13:22:20;;;;;;;;;;;;;;;;;;5075694;28;19908;-69
2023/07/27 13:24:46;;;;;;;;;;;;;;;;;;5075005;28;19927;-69
2023/07/27 13:27:12;;;;;;;;;;;;;;;;;;5075597;28;19909;-69
2023/07/27 13:29:38;;;;;;;;;;;;;;;;;;5075518;28;19915;-69
2023/07/27 13:32:04;;;;;;;;;;;;;;;;;;5075058;28;19908;-69
2023/07/27 13:34:30;;;;;;;;;;;;;;;;;;5074991;28;19909;-67
2023/07/27 13:36:56;;;;;;;;;;;;;;;;;;5057614;28;19908;-67
2023/07/27 13:39:21;;;;;;;;;;;;;;;;;;5075059;28;20280;-69
2023/07/27 13:41:47;;;;;;;;;;;;;;;;;;5057282;28;19916;-69
2023/07/27 13:44:13;;;;;;;;;;;;;;;;;;5057106;28;19917;-68
2023/07/27 13:46:39;;;;;;;;;;;;;;;;;;5074006;28;19916;-68
2023/07/27 13:49:05;;;;;;;;;;;;;;;;;;5074790;28;19908;-68
2023/07/27 13:51:31;;;;;;;;;;;;;;;;;;5057231;28;19915;-68
2023/07/27 13:53:57;;;;;;;;;;;;;;;;;;5074566;28;19951;-68
2023/07/27 13:56:23;;;;;;;;;;;;;;;;;;5075016;28;19916;-68
2023/07/27 13:58:49;;;;;;;;;;;;;;;;;;5074954;28;19916;-67
2023/07/27 14:01:15;;;;;;;;;;;;;;;;;;5074562;28;19915;-69
2023/07/27 14:03:41;;;;;;;;;;;;;;;;;;5074745;28;19917;-68
2023/07/27 14:06:07;;;;;;;;;;;;;;;;;;5074963;28;20356;-69
2023/07/27 14:08:33;;;;;;;;;;;;;;;;;;5074376;28;19944;-69
2023/07/27 14:10:59;;;;;;;;;;;;;;;;;;5074745;28;19931;-68
2023/07/27 14:13:25;;;;;;;;;;;;;;;;;;5074413;28;19909;-68
2023/07/27 14:15:51;;;;;;;;;;;;;;;;;;5074933;28;20027;-68
2023/07/27 14:18:17;;;;;;;;;;;;;;;;;;5074674;28;19912;-69
2023/07/27 14:20:43;;;;;;;;;;;;;;;;;;5056105;28;20022;-69
2023/07/27 14:23:09;;;;;;;;;;;;;;;;;;5074075;28;20471;-68
2023/07/27 14:25:35;;;;;;;;;;;;;;;;;;5056522;28;20067;-68
2023/07/27 14:28:01;;;;;;;;;;;;;;;;;;5074079;28;19913;-68
2023/07/27 14:30:27;;;;;;;;;;;;;;;;;;5056559;28;19915;-68
2023/07/27 14:32:53;;;;;;;;;;;;;;;;;;5074388;28;19991;-68
2023/07/27 14:35:19;;;;;;;;;;;;;;;;;;5073907;28;19955;-68
2023/07/27 14:37:45;;;;;;;;;;;;;;;;;;5074144;28;19909;-69
2023/07/27 14:40:11;;;;;;;;;;;;;;;;;;5074100;28;19909;-69
2023/07/27 14:42:37;;;;;;;;;;;;;;;;;;5073853;28;20393;-69
2023/07/27 14:45:03;;;;;;;;;;;;;;;;;;5074185;28;19963;-68
2023/07/27 14:47:29;;;;;;;;;;;;;;;;;;5056105;28;19912;-69
2023/07/27 14:49:55;;;;;;;;;;;;;;;;;;5073621;28;19909;-69
2023/07/27 14:52:21;;;;;;;;;;;;;;;;;;5073986;28;19909;-69
2023/07/27 14:54:47;;;;;;;;;;;;;;;;;;5074031;28;19908;-69
2023/07/27 14:57:13;;;;;;;;;;;;;;;;;;5073701;28;20364;-69
2023/07/27 14:59:39;;;;;;;;;;;;;;;;;;5073721;28;20284;-69
2023/07/27 15:02:05;;;;;;;;;;;;;;;;;;5073857;28;19909;-69
2023/07/27 15:04:31;;;;;;;;;;;;;;;;;;5073476;28;19924;-69
2023/07/27 15:06:57;;;;;;;;;;;;;;;;;;5073892;28;19909;-69
2023/07/27 15:09:23;;;;;;;;;;;;;;;;;;5073796;28;19948;-68
2023/07/27 15:11:49;;;;;;;;;;;;;;;;;;5073393;28;19935;-69
2023/07/27 15:14:15;;;;;;;;;;;;;;;;;;5073750;28;19912;-68
2023/07/27 15:16:41;;;;;;;;;;;;;;;;;;5073428;28;19995;-69
2023/07/27 15:19:07;;;;;;;;;;;;;;;;;;5073743;28;19908;-69
2023/07/27 15:21:33;;;;;;;;;;;;;;;;;;5073618;28;19931;-69
2023/07/27 15:23:59;;;;;;;;;;;;;;;;;;5073009;28;19931;-69
2023/07/27 15:26:25;;;;;;;;;;;;;;;;;;5073730;28;19908;-69
2023/07/27 15:28:51;;;;;;;;;;;;;;;;;;5073725;28;19915;-69
2023/07/27 15:31:17;;;;;;;;;;;;;;;;;;5073414;28;19916;-70
2023/07/27 15:33:43;;;;;;;;;;;;;;;;;;5073591;28;20373;-69
2023/07/27 15:36:09;;;;;;;;;;;;;;;;;;5073536;28;20430;-69
2023/07/27 15:38:35;;;;;;;;;;;;;;;;;;5073479;28;20276;-69
2023/07/27 15:41:02;;;;;;;;;;;;;;;;;;5055564;28;20063;-69
2023/07/27 15:43:28;;;;;;;;;;;;;;;;;;5073487;28;19916;-70
2023/07/27 15:45:54;;;;;;;;;;;;;;;;;;5073074;28;20007;-70
2023/07/27 15:48:20;;;;;;;;;;;;;;;;;;5055512;28;19908;-69
2023/07/27 15:50:46;;;;;;;;;;;;;;;;;;5055399;28;19954;-69
2023/07/27 15:53:12;;;;;;;;;;;;;;;;;;5073046;28;20007;-69
2023/07/27 15:55:38;;;;;;;;;;;;;;;;;;5073328;28;19908;-69
2023/07/27 15:58:04;;;;;;;;;;;;;;;;;;5073596;28;19908;-68
2023/07/27 16:00:30;;;;;;;;;;;;;;;;;;5072941;28;19908;-67
2023/07/27 16:02:56;;;;;;;;;;;;;;;;;;5073579;28;19909;-68
2023/07/27 16:05:24;;;;;;;;;;;;;;;;;;5073302;28;20396;-68
2023/07/27 16:07:49;;;;;;;;;;;;;;;;;;5072954;28;20066;-69
2023/07/27 16:10:15;;;;;;;;;;;;;;;;;;5074448;28;20380;-69
2023/07/27 16:12:41;;;;;;;;;;;;;;;;;;5077071;28;20284;-68
2023/07/27 16:15:07;;;;;;;;;;;;;;;;;;5076605;28;19909;-68
2023/07/27 16:17:33;;;;;;;;;;;;;;;;;;5076953;28;19912;-69
2023/07/27 16:19:59;;;;;;;;;;;;;;;;;;5076556;28;19939;-69
2023/07/27 16:22:25;;;;;;;;;;;;;;;;;;5076852;28;19909;-69
2023/07/27 16:24:51;;;;;;;;;;;;;;;;;;5076595;28;19927;-68
2023/07/27 16:27:17;;;;;;;;;;;;;;;;;;5076383;28;19908;-69
2023/07/27 16:29:43;;;;;;;;;;;;;;;;;;5076700;28;19909;-69
2023/07/27 16:32:09;;;;;;;;;;;;;;;;;;5076769;28;20006;-69
2023/07/27 16:34:35;;;;;;;;;;;;;;;;;;5058185;28;19915;-69
2023/07/27 16:37:01;;;;;;;;;;;;;;;;;;5076583;28;20010;-69
2023/07/27 16:39:27;;;;;;;;;;;;;;;;;;5076492;28;19916;-69
2023/07/27 16:41:53;;;;;;;;;;;;;;;;;;5058182;28;19909;-69
2023/07/27 16:44:19;;;;;;;;;;;;;;;;;;5076834;28;20013;-69
2023/07/27 16:46:45;;;;;;;;;;;;;;;;;;5076438;28;19908;-69
2023/07/27 16:49:11;;;;;;;;;;;;;;;;;;5076050;28;19909;-69
2023/07/27 16:51:36;;;;;;;;;;;;;;;;;;5076336;28;19909;-67
2023/07/27 16:55:08;;;;;;;;;;;;;;;;;;5091469;27;19916;-68
2023/07/27 16:57:34;;;;;;;;;;;;;;;;;;5091262;28;20283;-68
2023/07/27 17:00:00;;;;;;;;;;;;;;;;;;5091411;28;19915;-69
2023/07/27 17:02:26;;;;;;;;;;;;;;;;;;5091117;28;19975;-68
2023/07/27 17:07:03;;;;;;;;;;;;;;;;;;5091480;28;19922;-68
2023/07/27 17:09:29;;;;;;;;;;;;;;;;;;5089809;28;19912;-68
2023/07/27 17:11:55;;;;;;;;;;;;;;;;;;5090026;28;19909;-68
2023/07/27 17:14:21;;;;;;;;;;;;;;;;;;5091158;28;19915;-68
2023/07/27 17:16:47;;;;;;;;;;;;;;;;;;5090839;28;19969;-68
2023/07/27 17:19:13;;;;;;;;;;;;;;;;;;5091191;28;19998;-69
2023/07/27 17:21:39;;;;;;;;;;;;;;;;;;5091293;28;19909;-68
2023/07/27 17:27:45;;;;;;;;;;;;;;;;;;5152874;27;20454;-67
2023/07/27 17:30:11;;;;;;;;;;;;;;;;;;5133830;27;19966;-68
2023/07/27 17:32:37;;;;;;;;;;;;;;;;;;5152804;27;19913;-68
2023/07/27 17:35:42;;;;;;;;;;;;;;;;;;5091901;28;19916;-69
2023/07/27 17:38:08;;;;;;;;;;;;;;;;;;5091137;28;20003;-69
2023/07/27 17:43:45;;;;;;;;;;;;;;;;;;5091650;27;19922;-68
2023/07/27 17:46:11;;;;;;;;;;;;;;;;;;5090877;28;19913;-69
2023/07/27 17:48:39;;;;;;;;;;;;;;;;;;5091407;28;19909;-68
2023/07/27 17:51:14;;;;;;;;;;;;;;;;;;5091678;28;19927;-68
2023/07/27 17:53:40;;;;;;;;;;;;;;;;;;5091133;28;19999;-68
2023/07/27 17:56:07;;;;;;;;;;;;;;;;;;5091201;28;19962;-69
2023/07/27 17:58:33;;;;;;;;;;;;;;;;;;5090858;28;19999;-69
2023/07/27 18:00:59;;;;;;;;;;;;;;;;;;5091299;28;19951;-68
2023/07/27 18:04:26;;;;;;;;;;;;;;;;;;5092064;28;19922;-68
2023/07/27 18:06:52;;;;;;;;;;;;;;;;;;5091131;28;20010;-68
2023/07/27 18:09:18;;;;;;;;;;;;;;;;;;5091332;28;20418;-68
2023/07/27 18:11:44;;;;;;;;;;;;;;;;;;5091284;28;20374;-68
2023/07/27 18:17:58;;;;;;;;;;;;;;;;;;5091881;27;19923;-68
2023/07/27 18:21:23;;;;;;;;;;;;;;;;;;5091055;27;19923;-68
2023/07/27 18:26:23;;;;;;;;;;;;;;;;;;5111609;27;20293;-67
2023/07/27 18:29:40;;;;;;;;;;;;;;;;;;5091309;27;19917;-67
2023/07/27 18:32:06;;;;;;;;;;;;;;;;;;5091175;28;19973;-67
2023/07/27 18:36:27;;;;;;;;;;;;;;;;;;5091698;27;19916;-69
2023/07/27 18:39:32;;;;;;;;;;;;;;;;;;5091550;27;19912;-69
2023/07/27 18:41:58;;;;;;;;;;;;;;;;;;5091081;28;20479;-67
2023/07/27 18:46:11;;;;;;;;;;;;;;;;;;5091338;27;19923;-69
2023/07/27 18:48:37;;;;;;;;;;;;;;;;;;5090969;28;20436;-69
2023/07/27 18:51:03;;;;;;;;;;;;;;;;;;5091249;28;19915;-68
2023/07/27 18:53:29;;;;;;;;;;;;;;;;;;5091265;28;19912;-69
2023/07/27 18:55:55;;;;;;;;;;;;;;;;;;5090941;28;19915;-67
2023/07/27 19:00:16;;;;;;;;;;;;;;;;;;5091836;27;19923;-70
2023/07/27 19:02:42;;;;;;;;;;;;;;;;;;5091010;28;20012;-69
2023/07/27 19:05:08;;;;;;;;;;;;;;;;;;5091340;28;19948;-68
2023/07/27 19:07:35;;;;;;;;;;;;;;;;;;5090015;28;19961;-69
2023/07/27 19:10:01;;;;;;;;;;;;;;;;;;5090823;28;19908;-69
2023/07/27 19:12:26;;;;;;;;;;;;;;;;;;5091277;28;20368;-69
2023/07/27 19:18:56;;;;;;;;;;;;;;;;;;5091590;27;19916;-67
2023/07/27 19:21:22;;;;;;;;;;;;;;;;;;5091402;28;20003;-70
2023/07/27 19:25:40;;;;;;;;;;;;;;;;;;5152785;27;19999;-68
2023/07/27 19:29:17;;;;;;;;;;;;;;;;;;5152685;27;20010;-68
2023/07/27 19:32:19;;;;;;;;;;;;;;;;;;5092059;28;20290;-68
2023/07/27 19:36:31;;;;;;;;;;;;;;;;;;5091159;27;19916;-70
2023/07/27 19:38:57;;;;;;;;;;;;;;;;;;5090938;28;19913;-69
2023/07/27 19:42:47;;;;;;;;;;;;;;;;;;5111773;27;19923;-68
2023/07/27 19:45:16;;;;;;;;;;;;;;;;;;5111258;28;19998;-70
2023/07/27 19:58:26;;;;;;;;;;;;;;;;;;5091135;27;20283;-68
2023/07/27 20:02:02;;;;;;;;;;;;;;;;;;5112543;27;19916;-69
2023/07/27 20:04:28;;;;;;;;;;;;;;;;;;5111669;28;19959;-69
2023/07/27 20:10:40;;;;;;;;;;;;;;;;;;5091769;27;20287;-69
2023/07/27 20:22:54;;;;;;;;;;;;;;;;;;5112528;27;19939;-69
2023/07/27 20:27:54;;;;;;;;;;;;;;;;;;5152611;27;20010;-67
2023/07/27 20:30:41;;;;;;;;;;;;;;;;;;5091446;27;19912;-68
2023/07/27 20:35:19;;;;;;;;;;;;;;;;;;5090950;27;19916;-68
2023/07/27 20:37:45;;;;;;;;;;;;;;;;;;5091360;28;20006;-69
2023/07/27 20:42:31;;;;;;;;;;;;;;;;;;5091849;27;19916;-67
2023/07/27 20:46:16;;;;;;;;;;;;;;;;;;5091573;28;19916;-69
2023/07/27 20:53:29;;;;;;;;;;;;;;;;;;5092175;27;19917;-70
2023/07/27 20:55:56;;;;;;;;;;;;;;;;;;5091025;28;20436;-69
2023/07/27 20:59:14;;;;;;;;;;;;;;;;;;5071985;28;19919;-69
2023/07/27 21:04:02;;;;;;;;;;;;;;;;;;5112050;27;19916;-68
2023/07/27 21:06:40;;;;;;;;;;;;;;;;;;5091741;27;20388;-67
2023/07/27 21:09:06;;;;;;;;;;;;;;;;;;5091010;28;19919;-68
2023/07/27 21:16:18;;;;;;;;;;;;;;;;;;5091137;27;20387;-69
2023/07/27 21:24:03;;;;;;;;;;;;;;;;;;5091178;27;19922;-68
2023/07/27 21:28:14;;;;;;;;;;;;;;;;;;5091543;27;19989;-68
2023/07/27 21:33:15;;;;;;;;;;;;;;;;;;5091889;27;20291;-68
2023/07/27 21:37:13;;;;;;;;;;;;;;;;;;5091073;27;19919;-68